createdAt,value
2022-12-20T00:00:01.847Z,11.29
2022-12-20T00:05:01.776Z,11.3
2022-12-20T00:10:02.066Z,11.3
2022-12-20T00:15:02.168Z,11.14
2022-12-20T00:20:02.035Z,11
2022-12-20T00:25:01.922Z,10.93
2022-12-20T00:30:02.053Z,10.85
2022-12-20T00:35:02.446Z,10.81
2022-12-20T00:40:02.249Z,10.94
2022-12-20T00:45:02.069Z,10.92
2022-12-20T00:50:01.335Z,10.84
2022-12-20T00:55:01.447Z,10.75
2022-12-20T01:00:01.654Z,10.81
2022-12-20T01:05:01.788Z,10.78
2022-12-20T01:10:02.011Z,10.75
2022-12-20T01:15:02.162Z,10.8
2022-12-20T01:20:02.061Z,10.81
2022-12-20T01:25:01.611Z,10.81
2022-12-20T01:30:01.741Z,10.78
2022-12-20T01:35:02.180Z,10.72
2022-12-20T01:40:02.073Z,10.6
2022-12-20T01:45:02.164Z,10.55
2022-12-20T01:50:01.745Z,10.67
2022-12-20T01:55:01.486Z,10.67
2022-12-20T02:00:01.668Z,10.66
2022-12-20T02:05:02.225Z,10.71
2022-12-20T02:10:01.472Z,10.81
2022-12-20T02:15:01.412Z,10.81
2022-12-20T02:20:01.901Z,10.79
2022-12-20T02:25:02.204Z,10.79
2022-12-20T02:30:02.215Z,10.8
2022-12-20T02:35:01.911Z,10.89
2022-12-20T02:40:02.240Z,10.98
2022-12-20T02:45:01.318Z,10.99
2022-12-20T02:50:01.753Z,10.84
2022-12-20T02:55:01.945Z,10.88
2022-12-20T03:00:02.038Z,10.92
2022-12-20T03:05:02.155Z,10.89
2022-12-20T03:10:01.340Z,10.84
2022-12-20T03:15:01.751Z,10.88
2022-12-20T03:20:02.216Z,10.98
2022-12-20T03:25:02.075Z,11.03
2022-12-20T03:30:01.319Z,11.07
2022-12-20T03:35:01.331Z,11.19
2022-12-20T03:40:01.783Z,11.33
2022-12-20T03:45:01.455Z,11.25
2022-12-20T03:50:02.131Z,11.27
2022-12-20T03:55:02.075Z,11.24
2022-12-20T04:00:01.939Z,11.16
2022-12-20T04:05:01.911Z,11.24
2022-12-20T04:10:02.073Z,11.15
2022-12-20T04:15:01.492Z,11.1
2022-12-20T04:20:01.779Z,11.09
2022-12-20T04:25:01.936Z,11.03
2022-12-20T04:30:02.018Z,10.99
2022-12-20T04:35:02.015Z,11.02
2022-12-20T04:40:01.412Z,10.99
2022-12-20T04:45:01.776Z,10.99
2022-12-20T04:50:02.105Z,10.97
2022-12-20T04:55:01.995Z,11.03
2022-12-20T05:00:02.232Z,10.96
2022-12-20T05:05:01.960Z,11
2022-12-20T05:10:01.594Z,11.05
2022-12-20T05:15:01.879Z,11.01
2022-12-20T05:20:01.422Z,10.99
2022-12-20T05:25:01.695Z,10.9
2022-12-20T05:30:01.990Z,10.87
2022-12-20T05:35:02.041Z,10.87
2022-12-20T05:40:01.542Z,10.99
2022-12-20T05:45:01.728Z,11.09
2022-12-20T05:50:02.267Z,11.14
2022-12-20T05:55:01.292Z,11.25
2022-12-20T06:00:01.805Z,11.3
2022-12-20T06:05:02.090Z,11.34
2022-12-20T06:10:01.419Z,11.24
2022-12-20T06:15:01.550Z,11.2
2022-12-20T06:20:02.009Z,11.33
2022-12-20T06:25:02.213Z,11.37
2022-12-20T06:30:02.166Z,11.44
2022-12-20T06:35:01.940Z,11.38
2022-12-20T06:40:02.038Z,11.33
2022-12-20T06:45:01.376Z,11.44
2022-12-20T06:50:01.744Z,11.47
2022-12-20T06:55:01.431Z,11.36
2022-12-20T07:00:01.351Z,11.33
2022-12-20T07:05:01.918Z,11.29
2022-12-20T07:10:02.178Z,11.27
2022-12-20T07:15:01.518Z,11.31
2022-12-20T07:20:06.263Z,11.33
2022-12-20T07:25:01.525Z,11.38
2022-12-20T07:30:01.938Z,11.57
2022-12-20T07:35:02.084Z,11.56
2022-12-20T07:40:01.964Z,11.57
2022-12-20T07:45:01.449Z,11.57
2022-12-20T07:50:01.999Z,11.64
2022-12-20T07:55:01.988Z,11.48
2022-12-20T08:00:02.165Z,11.46
2022-12-20T08:05:01.344Z,11.48
2022-12-20T08:10:01.973Z,11.41
2022-12-20T08:15:02.124Z,11.36
2022-12-20T08:20:02.129Z,11.38
2022-12-20T08:25:01.730Z,11.41
2022-12-20T08:30:01.975Z,11.36
2022-12-20T08:35:02.070Z,11.47
2022-12-20T08:40:01.427Z,11.53
2022-12-20T08:45:01.915Z,11.64
2022-12-20T08:50:02.031Z,11.64
2022-12-20T08:55:02.404Z,11.6
2022-12-20T09:00:02.208Z,11.72
2022-12-20T09:05:01.499Z,11.69
2022-12-20T09:10:01.823Z,11.63
2022-12-20T09:15:02.210Z,11.6
2022-12-20T09:20:01.587Z,11.67
2022-12-20T09:25:01.941Z,11.62
2022-12-20T09:30:01.930Z,11.6
2022-12-20T09:35:02.197Z,11.69
2022-12-20T09:40:01.462Z,11.73
2022-12-20T09:45:01.819Z,11.73
2022-12-20T09:50:01.864Z,11.76
2022-12-20T09:55:01.584Z,11.7
2022-12-20T10:00:02.025Z,11.78
2022-12-20T10:05:02.305Z,11.87
2022-12-20T10:10:01.326Z,11.84
2022-12-20T10:15:01.825Z,11.92
2022-12-20T10:20:02.131Z,11.94
2022-12-20T10:25:01.330Z,11.96
2022-12-20T10:30:02.032Z,11.9
2022-12-20T10:35:02.186Z,11.89
2022-12-20T10:40:07.329Z,11.99
2022-12-20T10:45:01.560Z,12.11
2022-12-20T10:50:01.797Z,12.07
2022-12-20T10:55:02.215Z,12.16
2022-12-20T11:00:02.107Z,12.25
2022-12-20T11:05:01.969Z,12.21
2022-12-20T11:10:01.802Z,12.27
2022-12-20T11:15:01.610Z,12.25
2022-12-20T11:20:02.173Z,12.34
2022-12-20T11:25:01.377Z,12.3
2022-12-20T11:30:02.224Z,12.42
2022-12-20T11:35:01.589Z,12.34
2022-12-20T11:40:01.939Z,12.42
2022-12-20T11:45:09.195Z,12.45
2022-12-20T11:50:01.582Z,12.42
2022-12-20T11:55:01.885Z,12.44
2022-12-20T12:00:01.875Z,12.43
2022-12-20T12:05:01.366Z,12.38
2022-12-20T12:10:01.765Z,12.42
2022-12-20T12:15:01.565Z,12.5
2022-12-20T12:20:01.455Z,12.49
2022-12-20T12:25:01.788Z,12.58
2022-12-20T12:30:02.116Z,12.55
2022-12-20T12:35:02.238Z,12.57
2022-12-20T12:40:02.202Z,12.61
2022-12-20T12:45:01.481Z,12.57
2022-12-20T12:50:02.221Z,12.72
2022-12-20T12:55:02.160Z,12.69
2022-12-20T13:00:02.131Z,12.77
2022-12-20T13:05:01.569Z,12.78
2022-12-20T13:10:01.997Z,12.76
2022-12-20T13:15:02.093Z,12.78
2022-12-20T13:20:01.473Z,12.91
2022-12-20T13:25:01.684Z,12.88
2022-12-20T13:30:01.865Z,12.79
2022-12-20T13:35:02.059Z,12.82
2022-12-20T13:40:01.989Z,12.79
2022-12-20T13:45:01.566Z,12.77
2022-12-20T13:50:02.030Z,12.7
2022-12-20T13:55:01.763Z,12.66
2022-12-20T14:00:06.997Z,12.59
2022-12-20T14:05:01.387Z,12.57
2022-12-20T14:10:01.985Z,12.6
2022-12-20T14:15:01.538Z,12.65
2022-12-20T14:20:02.105Z,12.69
2022-12-20T14:25:02.260Z,12.71
2022-12-20T14:30:01.608Z,12.72
2022-12-20T14:35:01.968Z,12.67
2022-12-20T14:40:01.416Z,12.67
2022-12-20T14:50:01.438Z,12.75
2022-12-20T14:55:09.311Z,12.64
2022-12-20T15:00:02.150Z,12.66
2022-12-20T15:05:01.434Z,12.59
2022-12-20T15:10:02.155Z,12.72
2022-12-20T15:15:24.016Z,12.75
2022-12-20T15:20:01.757Z,12.64
2022-12-20T15:25:01.370Z,12.6
2022-12-20T15:30:02.025Z,12.64
2022-12-20T15:35:01.906Z,12.56
2022-12-20T15:40:01.343Z,12.51
2022-12-20T15:45:01.668Z,12.46
2022-12-20T15:50:02.029Z,12.43
2022-12-20T15:55:01.415Z,12.52
2022-12-20T16:00:06.064Z,12.53
2022-12-20T16:05:01.374Z,12.6
2022-12-20T16:10:02.200Z,12.56
2022-12-20T16:15:01.317Z,12.62
2022-12-20T16:20:01.796Z,12.48
2022-12-20T16:25:01.862Z,12.44
2022-12-20T16:30:02.055Z,12.35
2022-12-20T16:35:02.275Z,12.31
2022-12-20T16:40:01.421Z,12.19
2022-12-20T16:45:02.158Z,12.17
2022-12-20T16:50:01.788Z,12.11
2022-12-20T16:55:02.136Z,11.98
2022-12-20T17:00:01.367Z,11.93
2022-12-20T17:05:02.155Z,11.98
2022-12-20T17:10:09.261Z,11.96
2022-12-20T17:15:02.317Z,11.89
2022-12-20T17:20:01.910Z,11.86
2022-12-20T17:25:02.446Z,11.73
2022-12-20T17:30:02.202Z,11.72
2022-12-20T17:35:01.671Z,11.66
2022-12-20T17:40:02.022Z,11.55
2022-12-20T17:45:02.079Z,11.57
2022-12-20T17:50:02.115Z,11.61
2022-12-20T17:55:02.444Z,11.66
2022-12-20T18:00:01.499Z,11.67
2022-12-20T18:05:02.295Z,11.7
2022-12-20T18:10:02.188Z,11.76
2022-12-20T18:15:02.116Z,11.98
2022-12-20T18:20:02.234Z,11.94
2022-12-20T18:25:02.270Z,11.92
2022-12-20T18:30:02.313Z,11.83
2022-12-20T18:35:02.061Z,11.9
2022-12-20T18:40:02.313Z,11.85
2022-12-20T18:45:02.027Z,11.85
2022-12-20T18:50:01.947Z,11.87
2022-12-20T18:55:02.501Z,11.91
2022-12-20T19:00:02.374Z,12.01
2022-12-20T19:05:02.409Z,11.97
2022-12-20T19:10:02.339Z,11.94
2022-12-20T19:15:02.497Z,12.03
2022-12-20T19:20:03.293Z,12.07
2022-12-20T19:25:02.849Z,12.1
2022-12-20T19:30:02.527Z,12.1
2022-12-20T19:35:23.481Z,12.06
2022-12-20T19:40:02.844Z,12.02
2022-12-20T19:45:02.518Z,12.01
2022-12-20T19:50:02.243Z,11.99
2022-12-20T19:55:01.975Z,12
2022-12-20T20:00:02.482Z,12
2022-12-20T20:05:02.499Z,11.98
2022-12-20T20:10:02.279Z,11.98
2022-12-20T20:15:01.940Z,12.06
2022-12-20T20:20:02.377Z,12.04
2022-12-20T20:25:03.509Z,12.1
2022-12-20T20:30:02.635Z,12.04
2022-12-20T20:35:02.339Z,12.03
2022-12-20T20:40:01.830Z,11.98
2022-12-20T20:45:02.245Z,11.96
2022-12-20T20:50:02.784Z,11.94
2022-12-20T20:55:02.500Z,11.88
2022-12-20T21:00:02.066Z,11.84
2022-12-20T21:06:07.102Z,11.81
2022-12-20T21:10:02.810Z,11.86
2022-12-20T21:15:21.857Z,11.81
2022-12-20T21:20:01.883Z,11.81
2022-12-20T21:25:03.576Z,11.82
2022-12-20T21:30:02.993Z,11.81
2022-12-20T21:35:02.644Z,11.77
2022-12-20T21:40:02.424Z,11.69
2022-12-20T21:45:01.879Z,11.61
2022-12-20T21:50:02.013Z,11.57
2022-12-20T21:55:02.349Z,11.52
2022-12-20T22:00:02.106Z,11.51
2022-12-20T22:05:02.249Z,11.51
2022-12-20T22:10:02.009Z,11.49
2022-12-20T22:15:02.423Z,11.49
2022-12-20T22:20:02.546Z,11.49
2022-12-20T22:25:02.594Z,11.53
2022-12-20T22:30:02.562Z,11.55
2022-12-20T22:35:02.789Z,11.56
2022-12-20T22:40:02.212Z,11.62
2022-12-20T22:45:02.805Z,11.66
2022-12-20T22:50:02.006Z,11.62
2022-12-20T22:55:02.001Z,11.61
2022-12-20T23:00:01.948Z,11.46
2022-12-20T23:05:01.822Z,11.34
2022-12-20T23:10:01.661Z,11.39
2022-12-20T23:15:04.438Z,11.23
2022-12-20T23:20:01.874Z,11.23
2022-12-20T23:25:02.073Z,11.16
2022-12-20T23:30:02.560Z,11.22
2022-12-20T23:35:06.797Z,11.2
2022-12-20T23:40:01.928Z,11.22
2022-12-20T23:45:02.313Z,11.2
2022-12-20T23:50:02.416Z,11.16
2022-12-20T23:55:02.098Z,11.08
